createdAt,value
2018-06-13T00:01:46.895Z,13.40
2018-06-13T00:04:15.461Z,13.40
2018-06-13T00:06:43.969Z,13.30
2018-06-13T00:09:12.428Z,13.20
2018-06-13T00:11:40.904Z,13.20
2018-06-13T00:14:09.533Z,13.10
2018-06-13T00:16:38.020Z,12.90
2018-06-13T00:19:06.477Z,12.80
2018-06-13T00:21:34.980Z,12.70
2018-06-13T00:24:03.449Z,12.60
2018-06-13T00:26:31.895Z,12.60
2018-06-13T00:29:00.378Z,12.70
2018-06-13T00:31:28.839Z,12.90
2018-06-13T00:33:57.311Z,12.90
2018-06-13T00:36:25.801Z,13.00
2018-06-13T00:38:54.269Z,13.20
2018-06-13T00:41:22.731Z,13.30
2018-06-13T00:43:51.210Z,13.30
2018-06-13T00:46:19.680Z,13.40
2018-06-13T00:48:48.140Z,13.50
2018-06-13T00:51:16.663Z,13.50
2018-06-13T00:53:45.125Z,13.60
2018-06-13T00:56:24.792Z,13.60
2018-06-13T00:58:53.488Z,13.50
2018-06-13T01:01:21.955Z,13.60
2018-06-13T01:03:50.429Z,13.50
2018-06-13T01:06:18.889Z,13.60
2018-06-13T01:08:47.357Z,13.50
2018-06-13T01:11:15.831Z,13.50
2018-06-13T01:16:12.907Z,13.70
2018-06-13T01:18:41.418Z,13.60
2018-06-13T01:21:09.875Z,13.60
2018-06-13T01:23:38.394Z,13.60
2018-06-13T01:26:06.900Z,13.70
2018-06-13T01:28:35.341Z,13.60
2018-06-13T01:31:03.778Z,13.60
2018-06-13T01:33:32.241Z,13.60
2018-06-13T01:36:00.759Z,13.60
2018-06-13T01:38:29.343Z,13.70
2018-06-13T01:40:57.870Z,13.70
2018-06-13T01:43:26.314Z,13.60
2018-06-13T01:45:54.757Z,13.60
2018-06-13T01:48:23.233Z,13.60
2018-06-13T01:50:57.069Z,13.60
2018-06-13T01:53:25.623Z,13.50
2018-06-13T01:55:54.145Z,13.40
2018-06-13T01:58:22.595Z,13.30
2018-06-13T02:00:51.085Z,13.20
2018-06-13T02:03:19.542Z,13.10
2018-06-13T02:05:47.981Z,13.00
2018-06-13T02:08:16.461Z,12.90
2018-06-13T02:10:44.993Z,12.70
2018-06-13T02:13:13.424Z,12.50
2018-06-13T02:15:41.908Z,12.40
2018-06-13T02:18:10.845Z,12.20
2018-06-13T02:20:39.305Z,12.10
2018-06-13T02:23:07.791Z,12.10
2018-06-13T02:25:36.248Z,11.90
2018-06-13T02:28:04.722Z,11.70
2018-06-13T02:30:33.213Z,11.70
2018-06-13T02:33:01.693Z,11.40
2018-06-13T02:35:30.151Z,11.30
2018-06-13T02:37:58.674Z,11.10
2018-06-13T02:40:27.131Z,11.00
2018-06-13T02:42:55.738Z,10.90
2018-06-13T02:45:24.240Z,10.80
2018-06-13T02:47:52.721Z,10.70
2018-06-13T02:50:21.185Z,10.60
2018-06-13T02:52:49.853Z,10.50
2018-06-13T02:55:18.302Z,10.60
2018-06-13T02:57:46.783Z,10.50
2018-06-13T03:00:15.284Z,10.50
2018-06-13T03:02:43.730Z,10.60
2018-06-13T03:05:13.180Z,10.60
2018-06-13T03:07:41.659Z,10.50
2018-06-13T03:10:10.107Z,10.40
2018-06-13T03:12:38.600Z,10.30
2018-06-13T03:15:07.202Z,10.30
2018-06-13T03:17:35.653Z,10.10
2018-06-13T03:20:04.142Z,10.00
2018-06-13T03:22:32.626Z,10.00
2018-06-13T03:25:01.063Z,10.00
2018-06-13T03:27:29.516Z,10.00
2018-06-13T03:29:58.025Z,10.20
2018-06-13T03:32:26.476Z,10.30
2018-06-13T03:34:54.924Z,10.50
2018-06-13T03:37:23.399Z,10.80
2018-06-13T03:39:51.872Z,11.00
2018-06-13T03:42:20.338Z,11.20
2018-06-13T03:44:48.795Z,11.40
2018-06-13T03:47:17.265Z,11.60
2018-06-13T03:49:45.747Z,11.60
2018-06-13T03:52:14.225Z,11.70
2018-06-13T03:54:42.668Z,11.80
2018-06-13T03:57:11.133Z,12.00
2018-06-13T03:59:39.589Z,12.00
2018-06-13T04:02:08.033Z,12.10
2018-06-13T04:04:36.563Z,12.20
2018-06-13T04:07:05.075Z,12.30
2018-06-13T04:09:33.522Z,12.40
2018-06-13T04:12:02.101Z,12.40
2018-06-13T04:14:30.687Z,12.40
2018-06-13T04:16:59.170Z,12.40
2018-06-13T04:19:27.632Z,12.40
2018-06-13T04:21:56.113Z,12.50
2018-06-13T04:24:24.561Z,12.60
2018-06-13T04:26:53.012Z,12.70
2018-06-13T04:29:21.516Z,12.80
2018-06-13T04:31:49.961Z,12.80
2018-06-13T04:34:18.397Z,12.90
2018-06-13T04:36:46.894Z,13.00
2018-06-13T04:39:15.326Z,13.10
2018-06-13T04:41:43.762Z,13.20
2018-06-13T04:44:12.257Z,13.30
2018-06-13T04:46:40.692Z,13.40
2018-06-13T04:49:09.157Z,13.50
2018-06-13T04:51:37.625Z,13.70
2018-06-13T04:54:06.094Z,13.80
2018-06-13T04:56:34.539Z,13.80
2018-06-13T04:59:02.996Z,13.80
2018-06-13T05:01:31.456Z,13.80
2018-06-13T05:03:59.930Z,13.90
2018-06-13T05:06:28.533Z,14.00
2018-06-13T05:08:56.991Z,14.00
2018-06-13T05:11:25.448Z,14.00
2018-06-13T05:13:53.971Z,14.00
2018-06-13T05:16:22.420Z,14.10
2018-06-13T05:18:50.878Z,14.10
2018-06-13T05:21:19.446Z,14.10
2018-06-13T05:23:47.889Z,14.20
2018-06-13T05:26:16.350Z,14.20
2018-06-13T05:28:44.869Z,14.20
2018-06-13T05:31:13.298Z,14.10
2018-06-13T05:33:41.769Z,14.20
2018-06-13T05:36:10.256Z,14.20
2018-06-13T05:38:38.718Z,14.20
2018-06-13T05:41:07.206Z,14.30
2018-06-13T05:43:35.697Z,14.40
2018-06-13T05:46:04.177Z,14.60
2018-06-13T05:48:32.646Z,14.70
2018-06-13T05:51:01.129Z,14.90
2018-06-13T05:53:30.057Z,15.10
2018-06-13T05:55:58.579Z,15.30
2018-06-13T05:58:27.056Z,15.50
2018-06-13T06:00:55.527Z,15.60
2018-06-13T06:03:24.000Z,15.80
2018-06-13T06:05:52.575Z,15.90
2018-06-13T06:10:49.320Z,15.90
2018-06-13T06:13:17.838Z,16.00
2018-06-13T06:15:46.307Z,15.80
2018-06-13T06:18:14.885Z,15.70
2018-06-13T06:20:43.365Z,15.30
2018-06-13T06:23:11.872Z,15.30
2018-06-13T06:25:40.403Z,15.60
2018-06-13T06:28:08.913Z,15.90
2018-06-13T06:30:37.358Z,15.90
2018-06-13T06:33:05.914Z,16.00
2018-06-13T06:35:34.400Z,16.10
2018-06-13T06:38:02.842Z,16.10
2018-06-13T06:40:31.328Z,16.30
2018-06-13T06:42:59.811Z,16.40
2018-06-13T06:45:28.246Z,16.80
2018-06-13T06:47:56.755Z,16.80
2018-06-13T06:50:25.222Z,17.20
2018-06-13T06:52:53.664Z,17.60
2018-06-13T06:55:22.203Z,17.70
2018-06-13T06:57:50.682Z,17.60
2018-06-13T07:00:19.128Z,17.20
2018-06-13T07:02:47.646Z,17.10
2018-06-13T07:05:16.090Z,16.80
2018-06-13T07:07:44.542Z,17.10
2018-06-13T07:10:13.001Z,17.50
2018-06-13T07:12:41.489Z,17.90
2018-06-13T07:15:10.061Z,18.50
2018-06-13T07:17:38.533Z,18.60
2018-06-13T07:20:07.015Z,18.10
2018-06-13T07:22:35.468Z,18.00
2018-06-13T07:25:04.042Z,17.50
2018-06-13T07:27:32.560Z,17.80
2018-06-13T07:30:01.031Z,17.90
2018-06-13T07:32:29.509Z,17.80
2018-06-13T07:34:58.168Z,17.50
2018-06-13T07:37:26.631Z,17.40
2018-06-13T07:39:55.142Z,17.70
2018-06-13T07:42:23.626Z,17.70
2018-06-13T07:44:52.106Z,17.60
2018-06-13T07:47:21.100Z,17.50
2018-06-13T07:49:49.609Z,17.20
2018-06-13T07:52:18.090Z,17.30
2018-06-13T07:54:46.544Z,17.40
2018-06-13T07:57:15.026Z,17.60
2018-06-13T07:59:43.464Z,17.30
2018-06-13T08:02:11.938Z,17.20
2018-06-13T08:04:40.401Z,17.40
2018-06-13T08:07:08.844Z,17.60
2018-06-13T08:09:37.314Z,17.80
2018-06-13T08:12:05.814Z,18.10
2018-06-13T08:14:34.297Z,18.00
2018-06-13T08:17:02.730Z,18.20
2018-06-13T08:19:31.210Z,18.30
2018-06-13T08:21:59.668Z,18.30
2018-06-13T08:24:28.319Z,18.20
2018-06-13T08:26:56.824Z,18.10
2018-06-13T08:29:25.296Z,18.20
2018-06-13T08:31:53.815Z,18.10
2018-06-13T08:36:50.973Z,18.30
2018-06-13T08:39:19.446Z,19.00
2018-06-13T08:41:47.914Z,19.00
2018-06-13T08:44:16.358Z,19.30
2018-06-13T08:46:44.845Z,19.70
2018-06-13T08:49:13.306Z,19.70
2018-06-13T08:54:10.080Z,19.10
2018-06-13T08:56:38.502Z,19.30
2018-06-13T08:59:07.151Z,18.90
2018-06-13T09:01:35.609Z,19.00
2018-06-13T09:04:04.087Z,19.10
2018-06-13T09:06:32.535Z,19.90
2018-06-13T09:09:00.994Z,18.90
2018-06-13T09:11:29.456Z,18.40
2018-06-13T09:13:57.972Z,17.60
2018-06-13T09:16:26.771Z,17.70
2018-06-13T09:18:55.285Z,18.10
2018-06-13T09:21:23.741Z,18.60
2018-06-13T09:23:52.260Z,19.30
2018-06-13T09:26:20.754Z,19.10
2018-06-13T09:28:49.237Z,18.60
2018-06-13T09:31:17.751Z,18.40
2018-06-13T09:33:46.269Z,18.70
2018-06-13T09:36:14.732Z,18.30
2018-06-13T09:38:43.202Z,17.90
2018-06-13T09:41:11.782Z,17.70
2018-06-13T09:43:40.239Z,18.00
2018-06-13T09:46:12.013Z,18.20
2018-06-13T09:48:37.235Z,18.50
2018-06-13T09:51:05.715Z,18.30
2018-06-13T09:53:34.169Z,18.30
2018-06-13T09:56:02.659Z,18.20
2018-06-13T09:58:36.470Z,18.30
2018-06-13T10:01:07.308Z,18.80
2018-06-13T10:03:36.098Z,18.70
2018-06-13T10:06:04.593Z,19.30
2018-06-13T10:08:33.066Z,19.00
2018-06-13T10:11:01.532Z,19.50
2018-06-13T10:13:30.025Z,19.80
2018-06-13T10:15:59.149Z,19.90
2018-06-13T10:18:27.596Z,20.00
2018-06-13T10:20:56.041Z,20.00
2018-06-13T10:23:24.515Z,20.40
2018-06-13T10:25:53.049Z,20.50
2018-06-13T10:28:21.501Z,20.40
2018-06-13T10:30:50.048Z,20.80
2018-06-13T10:33:18.481Z,20.90
2018-06-13T10:35:47.027Z,21.60
2018-06-13T10:38:15.558Z,22.00
2018-06-13T10:40:44.015Z,22.80
2018-06-13T10:43:12.466Z,23.40
2018-06-13T10:45:40.998Z,24.10
2018-06-13T10:48:09.453Z,23.40
2018-06-13T10:50:37.910Z,23.00
2018-06-13T10:53:06.609Z,22.30
2018-06-13T10:55:35.167Z,22.60
2018-06-13T10:58:03.590Z,23.10
2018-06-13T11:00:32.051Z,22.70
2018-06-13T11:03:00.524Z,22.10
2018-06-13T11:05:28.972Z,21.50
2018-06-13T11:07:57.448Z,21.70
2018-06-13T11:10:25.896Z,21.50
2018-06-13T11:12:54.356Z,21.20
2018-06-13T11:15:22.828Z,21.30
2018-06-13T11:17:51.302Z,21.80
2018-06-13T11:20:19.883Z,22.10
2018-06-13T11:22:48.376Z,22.20
2018-06-13T11:25:16.885Z,22.30
2018-06-13T11:27:45.324Z,22.90
2018-06-13T11:30:13.941Z,23.20
2018-06-13T11:32:42.436Z,23.80
2018-06-13T11:35:10.902Z,23.60
2018-06-13T11:37:39.410Z,23.80
2018-06-13T11:40:07.875Z,23.30
2018-06-13T11:45:05.803Z,24.10
2018-06-13T11:47:34.296Z,23.80
2018-06-13T11:50:02.769Z,22.60
2018-06-13T11:52:31.283Z,22.10
2018-06-13T11:54:59.725Z,21.70
2018-06-13T11:57:28.236Z,22.00
2018-06-13T11:59:56.774Z,22.20
2018-06-13T12:02:25.218Z,21.60
2018-06-13T12:04:53.689Z,21.90
2018-06-13T12:07:22.169Z,21.60
2018-06-13T12:09:50.762Z,21.80
2018-06-13T12:12:19.198Z,22.90
2018-06-13T12:14:47.672Z,23.40
2018-06-13T12:17:16.139Z,22.60
2018-06-13T12:19:44.594Z,21.70
2018-06-13T12:22:13.071Z,21.10
2018-06-13T12:24:41.524Z,20.30
2018-06-13T12:27:09.948Z,20.20
2018-06-13T12:29:38.416Z,20.10
2018-06-13T12:32:06.985Z,19.90
2018-06-13T12:34:35.472Z,20.10
2018-06-13T12:37:04.036Z,20.70
2018-06-13T12:39:32.504Z,21.10
2018-06-13T12:42:00.944Z,21.60
2018-06-13T12:44:29.409Z,21.80
2018-06-13T12:46:57.877Z,21.60
2018-06-13T12:49:26.308Z,22.00
2018-06-13T12:51:54.787Z,22.00
2018-06-13T12:54:23.222Z,21.70
2018-06-13T12:56:51.687Z,22.00
2018-06-13T12:59:20.159Z,22.00
2018-06-13T13:01:48.633Z,22.90
2018-06-13T13:04:17.136Z,23.30
2018-06-13T13:06:45.598Z,24.20
2018-06-13T13:09:14.493Z,25.20
2018-06-13T13:11:43.696Z,27.40
2018-06-13T13:14:12.279Z,26.60
2018-06-13T13:16:40.748Z,26.00
2018-06-13T13:19:09.204Z,25.40
2018-06-13T13:24:05.861Z,25.50
2018-06-13T13:26:34.731Z,26.20
2018-06-13T13:29:03.691Z,25.20
2018-06-13T13:31:32.242Z,24.30
2018-06-13T13:34:00.732Z,23.20
2018-06-13T13:36:29.297Z,22.90
2018-06-13T13:41:25.949Z,23.10
2018-06-13T13:43:54.433Z,23.30
2018-06-13T13:46:22.893Z,23.60
2018-06-13T13:48:51.371Z,24.10
2018-06-13T13:51:19.848Z,25.00
2018-06-13T13:53:48.299Z,25.20
2018-06-13T13:56:16.744Z,24.80
2018-06-13T14:01:13.401Z,24.00
2018-06-13T14:03:41.877Z,23.80
2018-06-13T14:06:10.348Z,23.80
2018-06-13T14:08:38.809Z,23.30
2018-06-13T14:11:07.237Z,23.70
2018-06-13T14:13:35.695Z,23.20
2018-06-13T14:16:04.297Z,23.30
2018-06-13T14:18:32.910Z,22.10
2018-06-13T14:21:01.496Z,22.10
2018-06-13T14:23:29.989Z,21.80
2018-06-13T14:25:58.459Z,21.70
2018-06-13T14:28:26.961Z,21.10
2018-06-13T14:30:55.470Z,20.80
2018-06-13T14:33:23.916Z,21.00
2018-06-13T14:35:52.409Z,21.20
2018-06-13T14:38:20.918Z,21.50
2018-06-13T14:40:49.405Z,22.20
2018-06-13T14:43:17.883Z,22.50
2018-06-13T14:45:46.324Z,22.40
2018-06-13T14:48:14.887Z,22.80
2018-06-13T14:50:43.426Z,23.40
2018-06-13T14:53:11.842Z,24.10
2018-06-13T14:55:50.669Z,24.00
2018-06-13T14:58:19.145Z,23.80
2018-06-13T15:00:47.600Z,22.80
2018-06-13T15:03:16.086Z,22.50
2018-06-13T15:05:44.563Z,22.60
2018-06-13T15:08:13.022Z,23.20
2018-06-13T15:10:41.493Z,22.80
2018-06-13T15:13:10.002Z,22.70
2018-06-13T15:15:38.433Z,22.60
2018-06-13T15:18:07.013Z,22.10
2018-06-13T15:20:35.496Z,22.30
2018-06-13T15:23:03.953Z,22.20
2018-06-13T15:25:32.433Z,22.90
2018-06-13T15:28:00.956Z,23.10
2018-06-13T15:30:29.439Z,23.20
2018-06-13T15:32:57.964Z,23.10
2018-06-13T15:35:26.416Z,23.20
2018-06-13T15:37:54.890Z,23.00
2018-06-13T15:40:24.079Z,22.40
2018-06-13T15:42:52.552Z,22.20
2018-06-13T15:45:21.109Z,22.60
2018-06-13T15:47:49.697Z,23.50
2018-06-13T15:50:18.212Z,23.70
2018-06-13T15:52:46.737Z,23.70
2018-06-13T15:55:15.309Z,22.60
2018-06-13T15:57:43.776Z,21.10
2018-06-13T16:00:12.273Z,20.20
2018-06-13T16:02:40.768Z,19.80
2018-06-13T16:05:09.265Z,19.60
2018-06-13T16:07:37.767Z,19.50
2018-06-13T16:10:06.290Z,19.60
2018-06-13T16:12:34.823Z,19.60
2018-06-13T16:15:03.453Z,19.30
2018-06-13T16:17:31.979Z,19.50
2018-06-13T16:20:00.508Z,19.90
2018-06-13T16:22:29.008Z,19.90
2018-06-13T16:24:57.507Z,19.90
2018-06-13T16:27:25.975Z,19.70
2018-06-13T16:29:54.503Z,19.60
2018-06-13T16:32:23.009Z,19.70
2018-06-13T16:34:51.488Z,19.90
2018-06-13T16:37:19.961Z,20.00
2018-06-13T16:39:48.640Z,20.10
2018-06-13T16:42:17.147Z,20.10
2018-06-13T16:44:45.616Z,19.80
2018-06-13T16:47:14.073Z,20.00
2018-06-13T16:49:42.512Z,20.20
2018-06-13T16:52:22.363Z,20.30
2018-06-13T16:55:13.866Z,20.50
2018-06-13T16:57:42.351Z,20.60
2018-06-13T17:00:10.816Z,20.70
2018-06-13T17:02:39.272Z,20.40
2018-06-13T17:05:07.778Z,20.30
2018-06-13T17:07:36.241Z,20.10
2018-06-13T17:10:04.861Z,20.20
2018-06-13T17:12:33.654Z,20.40
2018-06-13T17:15:02.557Z,20.90
2018-06-13T17:17:31.104Z,20.80
2018-06-13T17:19:59.712Z,20.90
2018-06-13T17:22:28.165Z,20.70
2018-06-13T17:24:57.186Z,20.60
2018-06-13T17:27:25.723Z,20.50
2018-06-13T17:29:54.960Z,20.60
2018-06-13T17:32:23.948Z,20.70
2018-06-13T17:34:52.561Z,20.70
2018-06-13T17:37:21.116Z,20.60
2018-06-13T17:39:49.905Z,20.50
2018-06-13T17:42:18.400Z,20.30
2018-06-13T17:44:47.995Z,20.00
2018-06-13T17:47:16.470Z,19.80
2018-06-13T17:49:45.028Z,19.60
2018-06-13T17:52:13.489Z,19.40
2018-06-13T17:54:41.970Z,19.20
2018-06-13T17:57:10.475Z,19.00
2018-06-13T17:59:38.925Z,18.90
2018-06-13T18:02:07.389Z,18.60
2018-06-13T18:04:35.878Z,18.40
2018-06-13T18:07:04.437Z,18.40
2018-06-13T18:09:32.945Z,18.20
2018-06-13T18:12:01.428Z,18.00
2018-06-13T18:14:29.909Z,18.00
2018-06-13T18:16:58.484Z,17.90
2018-06-13T18:19:26.974Z,17.80
2018-06-13T18:21:55.477Z,17.90
2018-06-13T18:24:24.078Z,17.90
2018-06-13T18:26:52.570Z,18.00
2018-06-13T18:29:21.023Z,18.10
2018-06-13T18:31:49.508Z,18.00
2018-06-13T18:34:18.106Z,18.00
2018-06-13T18:36:46.498Z,17.90
2018-06-13T18:39:14.960Z,17.80
2018-06-13T18:41:43.811Z,17.70
2018-06-13T18:44:12.701Z,17.60
2018-06-13T18:46:41.257Z,17.50
2018-06-13T18:49:09.853Z,17.30
2018-06-13T18:51:38.341Z,17.10
2018-06-13T18:54:06.884Z,17.00
2018-06-13T18:59:04.614Z,16.70
2018-06-13T19:01:33.292Z,16.50
2018-06-13T19:04:01.909Z,16.30
2018-06-13T19:06:30.475Z,16.10
2018-06-13T19:08:59.007Z,15.90
2018-06-13T19:13:56.024Z,15.80
2018-06-13T19:16:24.498Z,15.70
2018-06-13T19:18:53.006Z,15.60
2018-06-13T19:21:21.471Z,15.40
2018-06-13T19:23:49.933Z,15.30
2018-06-13T19:26:18.444Z,15.20
2018-06-13T19:28:46.932Z,15.00
2018-06-13T19:31:15.392Z,14.90
2018-06-13T19:33:43.879Z,14.80
2018-06-13T19:36:12.417Z,14.60
2018-06-13T19:38:40.878Z,14.50
2018-06-13T19:41:09.382Z,14.40
2018-06-13T19:43:39.259Z,14.10
2018-06-13T19:46:08.337Z,13.90
2018-06-13T19:48:42.229Z,13.70
2018-06-13T19:51:10.820Z,13.50
2018-06-13T19:53:44.663Z,13.30
2018-06-13T19:56:14.437Z,13.20
2018-06-13T19:58:42.966Z,13.00
2018-06-13T20:01:11.453Z,12.90
2018-06-13T20:03:45.119Z,12.80
2018-06-13T20:06:13.631Z,12.70
2018-06-13T20:08:42.086Z,12.50
2018-06-13T20:11:10.589Z,12.40
2018-06-13T20:13:44.375Z,12.40
2018-06-13T20:16:18.361Z,12.30
2018-06-13T20:18:52.209Z,12.30
2018-06-13T20:21:20.704Z,12.20
2018-06-13T20:23:49.139Z,12.10
2018-06-13T20:26:22.884Z,12.00
2018-06-13T20:28:56.732Z,11.90
2018-06-13T20:31:27.589Z,11.90
2018-06-13T20:33:56.088Z,11.80
2018-06-13T20:36:24.613Z,11.80
2018-06-13T20:38:53.101Z,11.80
2018-06-13T20:41:21.589Z,11.70
2018-06-13T20:43:50.074Z,11.60
2018-06-13T20:46:18.582Z,11.50
2018-06-13T20:48:47.039Z,11.50
2018-06-13T20:51:15.545Z,11.60
2018-06-13T20:53:44.247Z,11.60
2018-06-13T20:56:12.732Z,11.50
2018-06-13T20:58:41.232Z,11.50
2018-06-13T21:01:09.687Z,11.30
2018-06-13T21:03:38.320Z,11.30
2018-06-13T21:06:06.815Z,11.20
2018-06-13T21:08:35.953Z,11.20
2018-06-13T21:11:04.409Z,11.10
2018-06-13T21:13:32.928Z,11.10
2018-06-13T21:16:01.508Z,11.10
2018-06-13T21:18:30.075Z,11.00
2018-06-13T21:20:58.541Z,11.00
2018-06-13T21:23:27.045Z,10.90
2018-06-13T21:25:55.527Z,10.80
2018-06-13T21:28:24.088Z,10.80
2018-06-13T21:30:52.556Z,10.80
2018-06-13T21:33:21.085Z,10.70
2018-06-13T21:35:49.556Z,10.70
2018-06-13T21:38:18.102Z,10.90
2018-06-13T21:40:46.824Z,10.80
2018-06-13T21:43:15.423Z,10.80
2018-06-13T21:45:44.032Z,10.70
2018-06-13T21:48:12.500Z,10.60
2018-06-13T21:50:40.971Z,10.50
2018-06-13T21:53:09.556Z,10.40
2018-06-13T21:55:38.005Z,10.40
2018-06-13T21:58:06.465Z,10.40
2018-06-13T22:00:34.972Z,10.40
2018-06-13T22:03:03.459Z,10.40
2018-06-13T22:05:31.907Z,10.40
2018-06-13T22:08:00.448Z,10.40
2018-06-13T22:10:28.881Z,10.30
2018-06-13T22:12:57.369Z,10.30
2018-06-13T22:15:26.733Z,10.30
2018-06-13T22:17:56.817Z,10.20
2018-06-13T22:20:25.496Z,10.10
2018-06-13T22:22:53.972Z,10.10
2018-06-13T22:25:22.406Z,10.00
2018-06-13T22:27:50.872Z,10.00
2018-06-13T22:30:19.335Z,10.00
2018-06-13T22:32:47.762Z,10.00
2018-06-13T22:35:16.208Z,10.00
2018-06-13T22:37:44.669Z,10.00
2018-06-13T22:40:13.115Z,9.90
2018-06-13T22:42:41.582Z,9.90
2018-06-13T22:45:10.083Z,9.90
2018-06-13T22:47:38.627Z,9.90
2018-06-13T22:50:07.101Z,9.90
2018-06-13T22:52:35.688Z,9.80
2018-06-13T22:55:04.193Z,9.80
2018-06-13T22:57:32.733Z,9.80
2018-06-13T23:00:01.226Z,9.80
2018-06-13T23:02:29.693Z,9.80
2018-06-13T23:04:58.241Z,9.70
2018-06-13T23:07:26.696Z,9.70
2018-06-13T23:09:55.135Z,9.60
2018-06-13T23:12:23.600Z,9.70
2018-06-13T23:14:52.075Z,9.80
2018-06-13T23:17:20.527Z,9.80
2018-06-13T23:19:49.133Z,9.80
2018-06-13T23:22:17.710Z,9.70
2018-06-13T23:24:46.189Z,9.60
2018-06-13T23:27:14.614Z,9.70
2018-06-13T23:29:43.067Z,9.70
2018-06-13T23:32:11.522Z,9.60
2018-06-13T23:34:39.995Z,9.50
2018-06-13T23:37:08.476Z,9.50
2018-06-13T23:39:36.945Z,9.50
2018-06-13T23:42:05.597Z,9.40
2018-06-13T23:44:34.047Z,9.40
2018-06-13T23:47:02.477Z,9.40
2018-06-13T23:49:30.913Z,9.30
2018-06-13T23:51:59.383Z,9.40
2018-06-13T23:54:27.838Z,9.40
2018-06-13T23:56:56.274Z,9.30
2018-06-13T23:59:24.792Z,9.30
